UAE637 OKKK-OMDB
Flight info
| Callsign | UAE637 |
|---|---|
| Flight time | 1h 16m |
| Altitude | 41000 |
| Route | SESRU M677 VUTEB |
| Aircraft | A359/H-SDE2E3GHIJ3J4J5LM1ORWXY/LB1D1 |
Departure
| Time | 2026-05-08 12:15 |
|---|---|
| Airport | Kuwait International Airport (OKKK) |
Arrival
| Time | 2026-05-08 13:31 |
|---|---|
| Airport | Dubai International Airport (OMDB) |
| Time | Latitude | Longitude | Altitude | Speed | Heading |
|---|---|---|---|---|---|
| 2026-05-08 11:30 | 29.23830 | 47.97146 | 162 ft | 5 kts | 45° |
| 2026-05-08 11:57 | 29.23822 | 47.97137 | 161 ft | 3 kts | 51° |
| 2026-05-08 11:57 | 29.23811 | 47.97118 | 161 ft | 3 kts | 59° |
| 2026-05-08 11:57 | 29.23800 | 47.97099 | 161 ft | 3 kts | 52° |
| 2026-05-08 11:57 | 29.23787 | 47.97081 | 160 ft | 3 kts | 43° |
| 2026-05-08 11:58 | 29.23771 | 47.97067 | 160 ft | 3 kts | 33° |
| 2026-05-08 11:58 | 29.23754 | 47.97055 | 160 ft | 3 kts | 24° |
| 2026-05-08 11:58 | 29.23741 | 47.97049 | 160 ft | 1 kts | 22° |
| 2026-05-08 12:08 | 29.23747 | 47.97046 | 160 ft | 1 kts | 348° |
| 2026-05-08 12:08 | 29.23771 | 47.97018 | 159 ft | 14 kts | 301° |
| 2026-05-08 12:08 | 29.23752 | 47.96923 | 158 ft | 13 kts | 248° |
| 2026-05-08 12:09 | 29.23712 | 47.96815 | 156 ft | 16 kts | 246° |
| 2026-05-08 12:09 | 29.23667 | 47.96683 | 155 ft | 18 kts | 252° |
| 2026-05-08 12:09 | 29.23596 | 47.96644 | 156 ft | 12 kts | 161° |
| 2026-05-08 12:09 | 29.23520 | 47.96685 | 156 ft | 13 kts | 154° |
| 2026-05-08 12:10 | 29.23433 | 47.96732 | 158 ft | 14 kts | 158° |
| 2026-05-08 12:10 | 29.23338 | 47.96779 | 159 ft | 16 kts | 155° |
| 2026-05-08 12:10 | 29.23234 | 47.96836 | 160 ft | 17 kts | 154° |
| 2026-05-08 12:10 | 29.23119 | 47.96898 | 162 ft | 19 kts | 155° |
| 2026-05-08 12:11 | 29.22994 | 47.96963 | 163 ft | 21 kts | 156° |
| 2026-05-08 12:11 | 29.22858 | 47.97033 | 165 ft | 22 kts | 155° |
| 2026-05-08 12:11 | 29.22717 | 47.97109 | 166 ft | 23 kts | 155° |
| 2026-05-08 12:11 | 29.22567 | 47.97189 | 168 ft | 24 kts | 155° |
| 2026-05-08 12:12 | 29.22413 | 47.97271 | 170 ft | 25 kts | 155° |
| 2026-05-08 12:12 | 29.22250 | 47.97358 | 173 ft | 27 kts | 155° |
| 2026-05-08 12:12 | 29.22079 | 47.97450 | 174 ft | 28 kts | 155° |
| 2026-05-08 12:12 | 29.21899 | 47.97546 | 176 ft | 29 kts | 155° |
| 2026-05-08 12:13 | 29.21713 | 47.97646 | 179 ft | 30 kts | 155° |
| 2026-05-08 12:13 | 29.21519 | 47.97748 | 181 ft | 31 kts | 156° |
| 2026-05-08 12:13 | 29.21325 | 47.97849 | 199 ft | 22 kts | 161° |
| 2026-05-08 12:13 | 29.21254 | 47.97794 | 190 ft | 14 kts | 248° |
| 2026-05-08 12:14 | 29.21278 | 47.97693 | 183 ft | 14 kts | 298° |
| 2026-05-08 12:14 | 29.21340 | 47.97598 | 181 ft | 16 kts | 322° |
| 2026-05-08 12:14 | 29.21373 | 47.97575 | 180 ft | 4 kts | 334° |
| 2026-05-08 12:14 | 29.21650 | 47.97428 | 176 ft | 85 kts | 335° |
| 2026-05-08 12:15 | 29.22405 | 47.97028 | 170 ft | 152 kts | 335° |
| 2026-05-08 12:15 | 29.23437 | 47.96474 | 720 ft | 168 kts | 334° |
| 2026-05-08 12:15 | 29.24473 | 47.95853 | 1587 ft | 170 kts | 332° |
| 2026-05-08 12:15 | 29.25524 | 47.95211 | 2457 ft | 171 kts | 332° |
| 2026-05-08 12:16 | 29.26569 | 47.94567 | 3336 ft | 169 kts | 331° |
| 2026-05-08 12:16 | 29.27666 | 47.93959 | 3876 ft | 188 kts | 336° |
| 2026-05-08 12:16 | 29.29007 | 47.93336 | 3961 ft | 229 kts | 337° |
| 2026-05-08 12:16 | 29.30614 | 47.92562 | 3941 ft | 265 kts | 336° |
| 2026-05-08 12:17 | 29.32301 | 47.91716 | 3941 ft | 264 kts | 336° |
| 2026-05-08 12:17 | 29.34056 | 47.91141 | 3939 ft | 264 kts | 353° |
| 2026-05-08 12:17 | 29.35865 | 47.91413 | 4116 ft | 267 kts | 20° |
| 2026-05-08 12:17 | 29.37406 | 47.92642 | 4809 ft | 276 kts | 46° |
| 2026-05-08 12:18 | 29.38482 | 47.94489 | 5664 ft | 283 kts | 59° |
| 2026-05-08 12:18 | 29.39414 | 47.96478 | 6472 ft | 289 kts | 61° |
| 2026-05-08 12:18 | 29.40370 | 47.98541 | 7349 ft | 297 kts | 60° |
| 2026-05-08 12:18 | 29.41349 | 48.00646 | 8352 ft | 300 kts | 61° |
| 2026-05-08 12:19 | 29.42332 | 48.02781 | 9318 ft | 306 kts | 61° |
| 2026-05-08 12:19 | 29.43277 | 48.05004 | 10164 ft | 313 kts | 69° |
| 2026-05-08 12:19 | 29.43626 | 48.07522 | 10613 ft | 332 kts | 96° |
| 2026-05-08 12:19 | 29.43032 | 48.10149 | 10978 ft | 350 kts | 113° |
| 2026-05-08 12:20 | 29.42090 | 48.12808 | 11387 ft | 367 kts | 114° |
| 2026-05-08 12:20 | 29.41104 | 48.15548 | 12074 ft | 375 kts | 114° |
| 2026-05-08 12:20 | 29.40125 | 48.18329 | 12861 ft | 378 kts | 113° |
| 2026-05-08 12:20 | 29.39149 | 48.21143 | 13661 ft | 381 kts | 113° |
| 2026-05-08 12:21 | 29.38173 | 48.23988 | 14303 ft | 386 kts | 112° |
| 2026-05-08 12:21 | 29.37183 | 48.26887 | 14859 ft | 394 kts | 113° |
| 2026-05-08 12:21 | 29.36171 | 48.29842 | 15431 ft | 401 kts | 113° |
| 2026-05-08 12:21 | 29.35144 | 48.32845 | 15983 ft | 408 kts | 113° |
| 2026-05-08 12:22 | 29.34112 | 48.35861 | 16558 ft | 415 kts | 113° |
| 2026-05-08 12:22 | 29.33050 | 48.38967 | 17151 ft | 421 kts | 113° |
| 2026-05-08 12:22 | 29.31969 | 48.42124 | 17748 ft | 428 kts | 113° |
| 2026-05-08 12:22 | 29.30869 | 48.45336 | 18351 ft | 435 kts | 113° |
| 2026-05-08 12:23 | 29.29761 | 48.48571 | 19010 ft | 436 kts | 114° |
| 2026-05-08 12:23 | 29.28652 | 48.51807 | 19761 ft | 436 kts | 115° |
| 2026-05-08 12:23 | 29.27554 | 48.55009 | 20481 ft | 437 kts | 115° |
| 2026-05-08 12:23 | 29.26438 | 48.58257 | 21165 ft | 439 kts | 116° |
| 2026-05-08 12:24 | 29.25314 | 48.61522 | 21915 ft | 441 kts | 116° |
| 2026-05-08 12:24 | 29.24188 | 48.64794 | 22719 ft | 440 kts | 116° |
| 2026-05-08 12:24 | 29.23067 | 48.68051 | 23443 ft | 441 kts | 117° |
| 2026-05-08 12:24 | 29.21934 | 48.71332 | 23994 ft | 445 kts | 117° |
| 2026-05-08 12:25 | 29.20787 | 48.74652 | 24449 ft | 450 kts | 117° |
| 2026-05-08 12:25 | 29.19629 | 48.78000 | 24947 ft | 455 kts | 117° |
| 2026-05-08 12:25 | 29.18469 | 48.81352 | 25444 ft | 459 kts | 117° |
| 2026-05-08 12:25 | 29.17290 | 48.84759 | 25954 ft | 463 kts | 118° |
| 2026-05-08 12:26 | 29.16029 | 48.88154 | 26457 ft | 463 kts | 123° |
| 2026-05-08 12:26 | 29.14385 | 48.91288 | 26966 ft | 457 kts | 133° |
| 2026-05-08 12:26 | 29.12302 | 48.93994 | 27478 ft | 451 kts | 143° |
| 2026-05-08 12:26 | 29.09992 | 48.96431 | 28023 ft | 452 kts | 146° |
| 2026-05-08 12:27 | 29.07607 | 48.98782 | 28545 ft | 454 kts | 147° |
| 2026-05-08 12:27 | 29.05178 | 49.01107 | 29067 ft | 457 kts | 147° |
| 2026-05-08 12:27 | 29.02718 | 49.03445 | 29555 ft | 461 kts | 148° |
| 2026-05-08 12:27 | 29.00246 | 49.05803 | 30026 ft | 464 kts | 148° |
| 2026-05-08 12:28 | 28.97763 | 49.08187 | 30393 ft | 469 kts | 148° |
| 2026-05-08 12:28 | 28.95261 | 49.10600 | 30686 ft | 474 kts | 147° |
| 2026-05-08 12:28 | 28.92741 | 49.13042 | 31130 ft | 476 kts | 148° |
| 2026-05-08 12:28 | 28.90214 | 49.15498 | 31540 ft | 478 kts | 148° |
| 2026-05-08 12:29 | 28.87681 | 49.17962 | 31937 ft | 479 kts | 148° |
| 2026-05-08 12:29 | 28.85150 | 49.20458 | 32334 ft | 483 kts | 147° |
| 2026-05-08 12:29 | 28.82637 | 49.23024 | 32690 ft | 486 kts | 147° |
| 2026-05-08 12:29 | 28.80124 | 49.25627 | 32969 ft | 489 kts | 147° |
| 2026-05-08 12:30 | 28.77609 | 49.28243 | 33381 ft | 489 kts | 147° |
| 2026-05-08 12:30 | 28.75105 | 49.30845 | 33929 ft | 486 kts | 147° |
| 2026-05-08 12:30 | 28.72610 | 49.33428 | 34363 ft | 484 kts | 148° |
| 2026-05-08 12:30 | 28.70107 | 49.36001 | 34664 ft | 485 kts | 148° |
| 2026-05-08 12:31 | 28.67596 | 49.38571 | 34972 ft | 486 kts | 148° |
| 2026-05-08 12:31 | 28.65108 | 49.41111 | 35250 ft | 486 kts | 148° |
| 2026-05-08 12:31 | 28.62614 | 49.43729 | 35554 ft | 492 kts | 145° |
| 2026-05-08 12:31 | 28.60335 | 49.46694 | 35875 ft | 504 kts | 137° |
| 2026-05-08 12:32 | 28.58337 | 49.50004 | 36186 ft | 511 kts | 133° |
| 2026-05-08 12:32 | 28.56429 | 49.53437 | 36471 ft | 513 kts | 131° |
| 2026-05-08 12:32 | 28.54570 | 49.56919 | 36765 ft | 515 kts | 131° |
| 2026-05-08 12:32 | 28.52734 | 49.60417 | 37084 ft | 515 kts | 130° |
| 2026-05-08 12:33 | 28.50900 | 49.63917 | 37381 ft | 514 kts | 130° |
| 2026-05-08 12:33 | 28.49073 | 49.67395 | 37773 ft | 512 kts | 131° |
| 2026-05-08 12:33 | 28.47237 | 49.70867 | 38070 ft | 512 kts | 131° |
| 2026-05-08 12:33 | 28.45392 | 49.74332 | 38349 ft | 512 kts | 131° |
| 2026-05-08 12:34 | 28.43503 | 49.77692 | 38598 ft | 505 kts | 136° |
| 2026-05-08 12:34 | 28.41301 | 49.80746 | 38835 ft | 492 kts | 144° |
| 2026-05-08 12:34 | 28.38816 | 49.83322 | 39067 ft | 478 kts | 153° |
| 2026-05-08 12:34 | 28.36155 | 49.85555 | 39289 ft | 473 kts | 155° |
| 2026-05-08 12:35 | 28.33451 | 49.87677 | 39536 ft | 470 kts | 156° |
| 2026-05-08 12:35 | 28.30733 | 49.89736 | 39769 ft | 468 kts | 156° |
| 2026-05-08 12:35 | 28.28013 | 49.91769 | 39980 ft | 468 kts | 156° |
| 2026-05-08 12:35 | 28.25289 | 49.93801 | 40177 ft | 468 kts | 156° |
| 2026-05-08 12:36 | 28.22574 | 49.95835 | 40381 ft | 468 kts | 156° |
| 2026-05-08 12:36 | 28.19896 | 49.97851 | 40556 ft | 468 kts | 156° |
| 2026-05-08 12:36 | 28.17184 | 49.99899 | 40728 ft | 468 kts | 156° |
| 2026-05-08 12:36 | 28.14475 | 50.01949 | 40863 ft | 469 kts | 155° |
| 2026-05-08 12:37 | 28.09061 | 50.06052 | 40876 ft | 468 kts | 156° |
| 2026-05-08 12:37 | 28.03653 | 50.10145 | 40872 ft | 468 kts | 156° |
| 2026-05-08 12:38 | 27.98236 | 50.14237 | 40874 ft | 467 kts | 155° |
| 2026-05-08 12:38 | 27.92830 | 50.18316 | 40870 ft | 467 kts | 155° |
| 2026-05-08 12:39 | 27.87459 | 50.22362 | 40870 ft | 467 kts | 155° |
| 2026-05-08 12:39 | 27.82041 | 50.26439 | 40858 ft | 467 kts | 155° |
| 2026-05-08 12:40 | 27.76630 | 50.30506 | 40869 ft | 467 kts | 155° |
| 2026-05-08 12:40 | 27.71212 | 50.34575 | 40865 ft | 467 kts | 155° |
| 2026-05-08 12:41 | 27.65799 | 50.38635 | 40860 ft | 467 kts | 155° |
| 2026-05-08 12:41 | 27.60422 | 50.42670 | 40858 ft | 467 kts | 154° |
| 2026-05-08 12:42 | 27.55035 | 50.46799 | 40857 ft | 468 kts | 154° |
| 2026-05-08 12:42 | 27.49657 | 50.50942 | 40856 ft | 468 kts | 154° |
| 2026-05-08 12:43 | 27.44272 | 50.55074 | 40853 ft | 468 kts | 154° |
| 2026-05-08 12:43 | 27.38892 | 50.59195 | 40854 ft | 468 kts | 154° |
| 2026-05-08 12:44 | 27.33536 | 50.63280 | 40851 ft | 468 kts | 154° |
| 2026-05-08 12:44 | 27.28147 | 50.67385 | 40843 ft | 467 kts | 154° |
| 2026-05-08 12:45 | 27.22766 | 50.71483 | 40843 ft | 466 kts | 154° |
| 2026-05-08 12:45 | 27.17392 | 50.75572 | 40842 ft | 467 kts | 154° |
| 2026-05-08 12:46 | 27.12360 | 50.80332 | 40841 ft | 478 kts | 144° |
| 2026-05-08 12:46 | 27.07623 | 50.85596 | 40844 ft | 480 kts | 143° |
| 2026-05-08 12:47 | 27.02965 | 50.90906 | 40838 ft | 479 kts | 142° |
| 2026-05-08 12:47 | 26.98721 | 50.96784 | 40837 ft | 492 kts | 131° |
| 2026-05-08 12:48 | 26.95611 | 51.02199 | 40827 ft | 494 kts | 130° |
| 2026-05-08 12:48 | 26.91996 | 51.08768 | 40818 ft | 495 kts | 129° |
| 2026-05-08 12:49 | 26.88421 | 51.15368 | 40822 ft | 498 kts | 126° |
| 2026-05-08 12:49 | 26.85691 | 51.22559 | 40817 ft | 508 kts | 117° |
| 2026-05-08 12:50 | 26.83401 | 51.30072 | 40814 ft | 510 kts | 115° |
| 2026-05-08 12:50 | 26.81191 | 51.37629 | 40805 ft | 510 kts | 115° |
| 2026-05-08 12:51 | 26.77838 | 51.48914 | 40804 ft | 508 kts | 115° |
| 2026-05-08 12:52 | 26.75581 | 51.56411 | 40798 ft | 508 kts | 115° |
| 2026-05-08 12:52 | 26.72192 | 51.67643 | 40804 ft | 508 kts | 115° |
| 2026-05-08 12:53 | 26.69963 | 51.75096 | 40795 ft | 508 kts | 115° |
| 2026-05-08 12:53 | 26.67720 | 51.82584 | 40779 ft | 507 kts | 115° |
| 2026-05-08 12:54 | 26.65469 | 51.90056 | 40790 ft | 506 kts | 115° |
| 2026-05-08 12:54 | 26.63139 | 51.97473 | 40785 ft | 504 kts | 117° |
| 2026-05-08 12:55 | 26.60723 | 52.04771 | 40767 ft | 504 kts | 117° |
| 2026-05-08 12:55 | 26.58286 | 52.12139 | 40774 ft | 504 kts | 117° |
| 2026-05-08 12:56 | 26.55880 | 52.19467 | 40771 ft | 504 kts | 116° |
| 2026-05-08 12:56 | 26.53470 | 52.26828 | 40774 ft | 504 kts | 116° |
| 2026-05-08 12:57 | 26.51059 | 52.34179 | 40769 ft | 504 kts | 116° |
| 2026-05-08 12:57 | 26.48641 | 52.41532 | 40766 ft | 504 kts | 116° |
| 2026-05-08 12:58 | 26.46221 | 52.48876 | 40765 ft | 504 kts | 116° |
| 2026-05-08 12:58 | 26.43790 | 52.56240 | 40760 ft | 504 kts | 116° |
| 2026-05-08 12:59 | 26.41361 | 52.63582 | 40763 ft | 504 kts | 116° |
| 2026-05-08 12:59 | 26.38948 | 52.70880 | 40760 ft | 504 kts | 116° |
| 2026-05-08 13:00 | 26.36525 | 52.78181 | 40205 ft | 497 kts | 116° |
| 2026-05-08 13:00 | 26.35322 | 52.81802 | 39522 ft | 499 kts | 116° |
| 2026-05-08 13:00 | 26.34112 | 52.85438 | 38819 ft | 500 kts | 116° |
| 2026-05-08 13:01 | 26.32897 | 52.89073 | 38079 ft | 502 kts | 116° |
| 2026-05-08 13:01 | 26.31688 | 52.92683 | 37215 ft | 504 kts | 116° |
| 2026-05-08 13:01 | 26.30457 | 52.96354 | 36401 ft | 506 kts | 116° |
| 2026-05-08 13:01 | 26.29222 | 53.00038 | 35556 ft | 509 kts | 115° |
| 2026-05-08 13:02 | 26.27978 | 53.03748 | 34695 ft | 513 kts | 115° |
| 2026-05-08 13:02 | 26.26722 | 53.07493 | 33825 ft | 517 kts | 115° |
| 2026-05-08 13:02 | 26.25456 | 53.11261 | 32859 ft | 521 kts | 115° |
| 2026-05-08 13:02 | 26.24184 | 53.15051 | 31991 ft | 522 kts | 115° |
| 2026-05-08 13:03 | 26.22910 | 53.18844 | 31260 ft | 524 kts | 115° |
| 2026-05-08 13:03 | 26.21624 | 53.22667 | 30885 ft | 530 kts | 115° |
| 2026-05-08 13:03 | 26.20324 | 53.26525 | 30756 ft | 532 kts | 114° |
| 2026-05-08 13:03 | 26.19038 | 53.30341 | 30755 ft | 533 kts | 114° |
| 2026-05-08 13:04 | 26.16331 | 53.38000 | 30758 ft | 530 kts | 117° |
| 2026-05-08 13:04 | 26.13247 | 53.45443 | 30759 ft | 529 kts | 119° |
| 2026-05-08 13:05 | 26.10138 | 53.52811 | 30759 ft | 529 kts | 119° |
| 2026-05-08 13:05 | 26.07080 | 53.60213 | 30120 ft | 520 kts | 118° |
| 2026-05-08 13:06 | 26.05579 | 53.63883 | 29157 ft | 522 kts | 118° |
| 2026-05-08 13:06 | 26.04084 | 53.67548 | 28351 ft | 518 kts | 118° |
| 2026-05-08 13:06 | 26.02604 | 53.71178 | 27661 ft | 512 kts | 118° |
| 2026-05-08 13:06 | 26.01143 | 53.74762 | 27006 ft | 506 kts | 117° |
| 2026-05-08 13:07 | 25.99707 | 53.78314 | 26379 ft | 500 kts | 117° |
| 2026-05-08 13:07 | 25.98316 | 53.81839 | 25755 ft | 495 kts | 116° |
| 2026-05-08 13:07 | 25.96957 | 53.85325 | 25129 ft | 489 kts | 116° |
| 2026-05-08 13:07 | 25.95613 | 53.88784 | 24516 ft | 484 kts | 116° |
| 2026-05-08 13:08 | 25.94282 | 53.92199 | 23912 ft | 479 kts | 116° |
| 2026-05-08 13:08 | 25.92964 | 53.95570 | 23306 ft | 473 kts | 116° |
| 2026-05-08 13:08 | 25.91672 | 53.98862 | 22604 ft | 468 kts | 116° |
| 2026-05-08 13:08 | 25.90331 | 54.02128 | 21906 ft | 462 kts | 118° |
| 2026-05-08 13:09 | 25.88928 | 54.05314 | 21228 ft | 456 kts | 119° |
| 2026-05-08 13:09 | 25.87509 | 54.08440 | 20548 ft | 450 kts | 119° |
| 2026-05-08 13:09 | 25.86101 | 54.11526 | 19890 ft | 445 kts | 119° |
| 2026-05-08 13:09 | 25.84712 | 54.14582 | 19253 ft | 440 kts | 118° |
| 2026-05-08 13:10 | 25.83349 | 54.17606 | 18603 ft | 435 kts | 118° |
| 2026-05-08 13:10 | 25.82091 | 54.20646 | 17954 ft | 432 kts | 113° |
| 2026-05-08 13:10 | 25.81024 | 54.23739 | 17239 ft | 427 kts | 112° |
| 2026-05-08 13:10 | 25.80025 | 54.26821 | 16542 ft | 422 kts | 111° |
| 2026-05-08 13:11 | 25.79068 | 54.29889 | 15869 ft | 417 kts | 111° |
| 2026-05-08 13:11 | 25.78136 | 54.32923 | 15218 ft | 412 kts | 111° |
| 2026-05-08 13:11 | 25.77221 | 54.35913 | 14547 ft | 407 kts | 111° |
| 2026-05-08 13:11 | 25.76313 | 54.38873 | 13901 ft | 403 kts | 111° |
| 2026-05-08 13:12 | 25.75422 | 54.41758 | 13230 ft | 398 kts | 111° |
| 2026-05-08 13:12 | 25.74526 | 54.44642 | 12499 ft | 394 kts | 111° |
| 2026-05-08 13:12 | 25.73631 | 54.47507 | 11715 ft | 392 kts | 111° |
| 2026-05-08 13:12 | 25.72740 | 54.50356 | 10964 ft | 389 kts | 111° |
| 2026-05-08 13:13 | 25.71855 | 54.53186 | 10368 ft | 387 kts | 111° |
| 2026-05-08 13:13 | 25.70972 | 54.56005 | 10056 ft | 388 kts | 110° |
| 2026-05-08 13:13 | 25.70088 | 54.58828 | 9987 ft | 384 kts | 111° |
| 2026-05-08 13:13 | 25.69240 | 54.61538 | 9973 ft | 360 kts | 111° |
| 2026-05-08 13:14 | 25.68430 | 54.64076 | 9970 ft | 337 kts | 111° |
| 2026-05-08 13:14 | 25.67665 | 54.66451 | 9970 ft | 316 kts | 111° |
| 2026-05-08 13:14 | 25.66949 | 54.68677 | 9971 ft | 297 kts | 111° |
| 2026-05-08 13:14 | 25.66276 | 54.70771 | 9973 ft | 281 kts | 112° |
| 2026-05-08 13:15 | 25.65635 | 54.72760 | 9981 ft | 276 kts | 112° |
| 2026-05-08 13:15 | 25.64988 | 54.74762 | 9979 ft | 276 kts | 111° |
| 2026-05-08 13:15 | 25.64343 | 54.76764 | 9981 ft | 275 kts | 112° |
| 2026-05-08 13:15 | 25.63698 | 54.78762 | 9976 ft | 275 kts | 112° |
| 2026-05-08 13:16 | 25.63055 | 54.80757 | 9978 ft | 275 kts | 112° |
| 2026-05-08 13:16 | 25.62411 | 54.82754 | 9965 ft | 275 kts | 111° |
| 2026-05-08 13:16 | 25.61768 | 54.84748 | 9961 ft | 274 kts | 111° |
| 2026-05-08 13:16 | 25.61135 | 54.86714 | 9696 ft | 270 kts | 111° |
| 2026-05-08 13:17 | 25.60433 | 54.88659 | 9214 ft | 272 kts | 116° |
| 2026-05-08 13:17 | 25.59661 | 54.90581 | 8798 ft | 273 kts | 115° |
| 2026-05-08 13:17 | 25.58890 | 54.92500 | 8422 ft | 272 kts | 114° |
| 2026-05-08 13:17 | 25.58139 | 54.94392 | 8087 ft | 271 kts | 114° |
| 2026-05-08 13:18 | 25.57387 | 54.96302 | 7981 ft | 272 kts | 114° |
| 2026-05-08 13:18 | 25.56630 | 54.98233 | 7974 ft | 272 kts | 114° |
| 2026-05-08 13:18 | 25.55878 | 55.00154 | 7976 ft | 272 kts | 114° |
| 2026-05-08 13:18 | 25.55130 | 55.02069 | 7975 ft | 271 kts | 114° |
| 2026-05-08 13:19 | 25.54318 | 55.03944 | 7976 ft | 270 kts | 119° |
| 2026-05-08 13:19 | 25.53401 | 55.05756 | 7976 ft | 270 kts | 120° |
| 2026-05-08 13:19 | 25.52462 | 55.07560 | 7977 ft | 270 kts | 121° |
| 2026-05-08 13:19 | 25.51523 | 55.09364 | 7978 ft | 270 kts | 121° |
| 2026-05-08 13:20 | 25.50587 | 55.11162 | 7978 ft | 270 kts | 120° |
| 2026-05-08 13:20 | 25.49650 | 55.12966 | 7979 ft | 270 kts | 120° |
| 2026-05-08 13:20 | 25.48714 | 55.14766 | 7980 ft | 270 kts | 120° |
| 2026-05-08 13:20 | 25.47780 | 55.16564 | 7981 ft | 270 kts | 120° |
| 2026-05-08 13:21 | 25.46854 | 55.18345 | 7983 ft | 270 kts | 120° |
| 2026-05-08 13:21 | 25.45836 | 55.20089 | 7983 ft | 270 kts | 128° |
| 2026-05-08 13:21 | 25.44625 | 55.21670 | 7984 ft | 269 kts | 132° |
| 2026-05-08 13:21 | 25.43369 | 55.23208 | 7982 ft | 269 kts | 133° |
| 2026-05-08 13:22 | 25.42112 | 55.24741 | 7984 ft | 269 kts | 133° |
| 2026-05-08 13:22 | 25.40852 | 55.26280 | 7985 ft | 270 kts | 133° |
| 2026-05-08 13:22 | 25.39593 | 55.27821 | 7985 ft | 270 kts | 132° |
| 2026-05-08 13:22 | 25.38335 | 55.29362 | 7988 ft | 271 kts | 132° |
| 2026-05-08 13:23 | 25.37101 | 55.30876 | 7977 ft | 257 kts | 132° |
| 2026-05-08 13:23 | 25.35940 | 55.32325 | 7984 ft | 249 kts | 129° |
| 2026-05-08 13:23 | 25.34938 | 55.33895 | 7697 ft | 253 kts | 122° |
| 2026-05-08 13:23 | 25.34017 | 55.35542 | 7395 ft | 251 kts | 121° |
| 2026-05-08 13:24 | 25.33114 | 55.37184 | 7136 ft | 248 kts | 120° |
| 2026-05-08 13:24 | 25.32218 | 55.38811 | 6844 ft | 247 kts | 121° |
| 2026-05-08 13:24 | 25.31327 | 55.40421 | 6559 ft | 245 kts | 120° |
| 2026-05-08 13:24 | 25.30432 | 55.42031 | 6218 ft | 247 kts | 120° |
| 2026-05-08 13:25 | 25.29545 | 55.43627 | 5894 ft | 247 kts | 120° |
| 2026-05-08 13:25 | 25.28643 | 55.45249 | 5544 ft | 248 kts | 120° |
| 2026-05-08 13:25 | 25.27740 | 55.46873 | 5229 ft | 248 kts | 120° |
| 2026-05-08 13:25 | 25.26839 | 55.48493 | 4935 ft | 245 kts | 120° |
| 2026-05-08 13:26 | 25.25952 | 55.50095 | 4643 ft | 245 kts | 121° |
| 2026-05-08 13:26 | 25.25051 | 55.51714 | 4250 ft | 247 kts | 121° |
| 2026-05-08 13:26 | 25.24145 | 55.53336 | 3877 ft | 249 kts | 121° |
| 2026-05-08 13:26 | 25.23231 | 55.54958 | 3594 ft | 246 kts | 124° |
| 2026-05-08 13:27 | 25.22000 | 55.56217 | 3267 ft | 241 kts | 155° |
| 2026-05-08 13:27 | 25.20436 | 55.56617 | 2938 ft | 231 kts | 186° |
| 2026-05-08 13:27 | 25.18920 | 55.56155 | 2629 ft | 224 kts | 208° |
| 2026-05-08 13:27 | 25.17532 | 55.55397 | 2339 ft | 222 kts | 212° |
| 2026-05-08 13:28 | 25.16245 | 55.54487 | 2042 ft | 216 kts | 230° |
| 2026-05-08 13:28 | 25.15670 | 55.53035 | 1997 ft | 207 kts | 271° |
| 2026-05-08 13:28 | 25.16153 | 55.51586 | 1993 ft | 206 kts | 310° |
| 2026-05-08 13:28 | 25.17148 | 55.50422 | 1993 ft | 210 kts | 310° |
| 2026-05-08 13:29 | 25.18107 | 55.49202 | 1987 ft | 209 kts | 307° |
| 2026-05-08 13:29 | 25.18942 | 55.47900 | 1793 ft | 207 kts | 301° |
| 2026-05-08 13:29 | 25.19667 | 55.46588 | 1503 ft | 188 kts | 299° |
| 2026-05-08 13:29 | 25.20291 | 55.45456 | 1274 ft | 163 kts | 299° |
| 2026-05-08 13:30 | 25.20856 | 55.44443 | 1058 ft | 148 kts | 298° |
| 2026-05-08 13:30 | 25.21367 | 55.43520 | 897 ft | 134 kts | 300° |
| 2026-05-08 13:30 | 25.21878 | 55.42595 | 818 ft | 156 kts | 298° |
| 2026-05-08 13:30 | 25.22432 | 55.41558 | 679 ft | 154 kts | 298° |
| 2026-05-08 13:31 | 25.22986 | 55.40585 | 399 ft | 147 kts | 298° |
| 2026-05-08 13:31 | 25.23510 | 55.39641 | 160 ft | 139 kts | 297° |
| 2026-05-08 13:31 | 25.23994 | 55.38759 | 36 ft | 126 kts | 301° |
| 2026-05-08 13:31 | 25.24314 | 55.38183 | 35 ft | 33 kts | 300° |
| 2026-05-08 13:32 | 25.24429 | 55.37977 | 29 ft | 31 kts | 296° |
| 2026-05-08 13:32 | 25.24387 | 55.37858 | 30 ft | 22 kts | 216° |
| 2026-05-08 13:32 | 25.23945 | 55.38852 | 37 ft | 5 kts | 297° |
| 2026-05-08 13:32 | 25.23984 | 55.38774 | 36 ft | 16 kts | 299° |
| 2026-05-08 13:33 | 25.24030 | 55.38658 | 34 ft | 17 kts | 278° |
| 2026-05-08 13:33 | 25.23980 | 55.38566 | 34 ft | 13 kts | 212° |
| 2026-05-08 13:33 | 25.23954 | 55.38548 | 40 ft | 0 kts | 209° |
| 2026-05-08 13:34 | 25.23957 | 55.38550 | 39 ft | 8 kts | 219° |
| 2026-05-08 13:34 | 25.23960 | 55.38555 | 38 ft | 3 kts | 243° |
| 2026-05-08 13:34 | 25.23958 | 55.38548 | 40 ft | 0 kts | 253° |
| 2026-05-08 13:34 | 25.23959 | 55.38550 | 39 ft | 0 kts | 265° |
| 2026-05-08 13:35 | 25.23961 | 55.38554 | 37 ft | 1 kts | 294° |
| 2026-05-08 13:35 | 25.23975 | 55.38540 | 36 ft | 6 kts | 315° |
| 2026-05-08 13:35 | 25.24020 | 55.38498 | 35 ft | 10 kts | 324° |
| 2026-05-08 13:36 | 25.24146 | 55.38405 | 36 ft | 14 kts | 329° |